createdAt,value
2022-09-12T00:04:23.914Z,14.08
2022-09-12T00:09:26.754Z,14.17
2022-09-12T00:14:29.684Z,14.26
2022-09-12T00:19:32.555Z,14.32
2022-09-12T00:24:35.337Z,14.39
2022-09-12T00:29:38.211Z,14.45
2022-09-12T00:34:41.343Z,14.50
2022-09-12T00:39:44.164Z,14.52
2022-09-12T00:44:51.484Z,14.55
2022-09-12T00:50:13.717Z,14.57
2022-09-12T00:55:26.393Z,14.57
2022-09-12T01:00:29.932Z,14.56
2022-09-12T01:05:36.912Z,14.57
2022-09-12T01:10:42.127Z,14.52
2022-09-12T01:15:44.962Z,14.50
2022-09-12T01:21:02.752Z,14.45
2022-09-12T01:26:47.595Z,14.38
2022-09-12T01:32:18.029Z,14.24
2022-09-12T01:37:50.650Z,14.07
2022-09-12T01:43:21.338Z,13.96
2022-09-12T01:48:32.531Z,13.91
2022-09-12T01:53:42.435Z,13.91
2022-09-12T01:59:09.702Z,13.86
2022-09-12T02:04:34.138Z,13.76
2022-09-12T02:09:49.505Z,13.69
2022-09-12T02:15:00.195Z,13.63
2022-09-12T02:20:47.421Z,13.60
2022-09-12T02:25:58.053Z,13.61
2022-09-12T02:31:23.261Z,13.67
2022-09-12T02:36:46.370Z,13.66
2022-09-12T02:41:52.441Z,13.62
2022-09-12T02:47:19.378Z,13.60
2022-09-12T02:52:22.529Z,13.64
2022-09-12T02:57:25.676Z,13.61
2022-09-12T03:03:12.664Z,13.59
2022-09-12T03:08:22.133Z,13.60
2022-09-12T03:14:05.289Z,13.66
2022-09-12T03:19:32.604Z,13.73
2022-09-12T03:25:17.290Z,13.74
2022-09-12T03:30:20.764Z,13.74
2022-09-12T03:35:25.119Z,13.72
2022-09-12T03:40:27.934Z,13.68
2022-09-12T03:45:30.885Z,13.68
2022-09-12T03:50:34.219Z,13.65
2022-09-12T03:55:39.590Z,13.60
2022-09-12T04:00:44.303Z,13.57
2022-09-12T04:05:47.804Z,13.55
2022-09-12T04:10:50.648Z,13.52
2022-09-12T04:16:00.733Z,13.47
2022-09-12T04:21:11.465Z,13.45
2022-09-12T04:26:16.708Z,13.43
2022-09-12T04:31:22.633Z,13.45
2022-09-12T04:36:27.202Z,13.51
2022-09-12T04:41:35.429Z,13.53
2022-09-12T04:46:42.521Z,13.55
2022-09-12T04:51:46.250Z,13.48
2022-09-12T04:56:50.862Z,13.44
2022-09-12T05:01:53.812Z,13.42
2022-09-12T05:06:56.558Z,13.41
2022-09-12T05:12:04.238Z,13.52
2022-09-12T05:17:07.498Z,13.58
2022-09-12T05:22:10.366Z,13.58
2022-09-12T05:27:13.143Z,13.60
2022-09-12T05:32:16.869Z,13.64
2022-09-12T05:37:19.741Z,13.68
2022-09-12T05:42:23.509Z,13.81
2022-09-12T05:47:26.349Z,13.94
2022-09-12T05:52:29.075Z,14.17
2022-09-12T05:57:33.304Z,14.43
2022-09-12T06:02:36.208Z,14.64
2022-09-12T06:07:38.985Z,14.76
2022-09-12T06:12:42.351Z,14.83
2022-09-12T06:17:48.361Z,14.89
2022-09-12T06:22:54.164Z,14.97
2022-09-12T06:27:56.978Z,15.09
2022-09-12T06:32:59.735Z,15.20
2022-09-12T06:38:02.547Z,15.35
2022-09-12T06:43:05.744Z,15.52
2022-09-12T06:48:08.618Z,15.71
2022-09-12T06:53:11.555Z,15.79
2022-09-12T06:58:14.489Z,15.90
2022-09-12T07:03:18.180Z,15.99
2022-09-12T07:08:20.938Z,16.08
2022-09-12T07:13:24.010Z,16.31
2022-09-12T07:18:27.328Z,16.46
2022-09-12T07:23:30.732Z,16.49
2022-09-12T07:28:34.712Z,16.40
2022-09-12T07:33:39.694Z,16.36
2022-09-12T07:38:43.783Z,16.49
2022-09-12T07:43:47.854Z,16.66
2022-09-12T07:48:52.723Z,16.81
2022-09-12T07:53:56.621Z,16.91
2022-09-12T07:58:59.525Z,16.98
2022-09-12T08:04:03.476Z,17.28
2022-09-12T08:09:07.933Z,17.57
2022-09-12T08:14:10.694Z,17.91
2022-09-12T08:19:14.598Z,18.17
2022-09-12T08:24:17.939Z,18.40
2022-09-12T08:29:21.639Z,18.65
2022-09-12T08:34:24.916Z,18.79
2022-09-12T08:39:27.779Z,18.96
2022-09-12T08:44:47.356Z,19.22
2022-09-12T08:50:08.909Z,19.36
2022-09-12T08:55:27.586Z,19.43
2022-09-12T09:00:56.065Z,19.61
2022-09-12T09:06:47.385Z,19.79
2022-09-12T09:12:23.953Z,19.77
2022-09-12T09:17:35.993Z,19.66
2022-09-12T09:22:44.554Z,19.70
2022-09-12T09:28:02.311Z,19.89
2022-09-12T09:33:10.097Z,19.93
2022-09-12T09:38:42.202Z,20.11
2022-09-12T09:43:45.526Z,20.29
2022-09-12T09:48:50.691Z,20.37
2022-09-12T09:54:01.097Z,20.49
2022-09-12T09:59:28.344Z,20.30
2022-09-12T10:04:39.345Z,19.90
2022-09-12T10:10:27.274Z,19.53
2022-09-12T10:15:30.610Z,19.25
2022-09-12T10:20:45.973Z,19.08
2022-09-12T10:25:55.262Z,19.10
2022-09-12T10:31:00.056Z,19.14
2022-09-12T10:36:03.798Z,19.49
2022-09-12T10:41:10.128Z,19.78
2022-09-12T10:46:16.334Z,19.88
2022-09-12T10:51:25.409Z,19.85
2022-09-12T10:56:33.761Z,19.77
2022-09-12T11:01:47.287Z,20.04
2022-09-12T11:07:31.537Z,20.95
2022-09-12T11:12:46.836Z,21.43
2022-09-12T11:18:26.341Z,22.34
2022-09-12T11:24:15.676Z,23.16
2022-09-12T11:29:37.986Z,22.64
2022-09-12T11:35:25.219Z,21.76
2022-09-12T11:40:36.165Z,21.02
2022-09-12T11:45:44.640Z,20.51
2022-09-12T11:50:48.062Z,20.05
2022-09-12T11:56:25.196Z,19.86
2022-09-12T12:01:44.038Z,19.80
2022-09-12T12:07:02.857Z,19.93
2022-09-12T12:12:11.624Z,20.05
2022-09-12T12:17:26.203Z,20.15
2022-09-12T12:22:29.282Z,20.15
2022-09-12T12:27:54.977Z,20.12
2022-09-12T12:33:13.324Z,20.08
2022-09-12T12:38:37.192Z,20.29
2022-09-12T12:43:40.202Z,20.53
2022-09-12T12:48:58.947Z,20.48
2022-09-12T12:54:09.769Z,20.38
2022-09-12T12:59:23.195Z,20.38
2022-09-12T13:04:30.536Z,20.48
2022-09-12T13:09:44.769Z,20.61
2022-09-12T13:14:49.088Z,20.71
2022-09-12T13:20:26.182Z,20.91
2022-09-12T13:25:36.680Z,20.99
2022-09-12T13:30:48.165Z,20.95
2022-09-12T13:36:06.087Z,21.07
2022-09-12T13:41:53.430Z,21.15
2022-09-12T13:47:00.834Z,21.29
2022-09-12T13:52:15.977Z,21.40
2022-09-12T13:57:36.278Z,21.44
2022-09-12T14:02:40.673Z,21.44
2022-09-12T14:08:04.681Z,21.42
2022-09-12T14:13:26.599Z,21.46
2022-09-12T14:18:34.027Z,21.61
2022-09-12T14:23:42.671Z,21.83
2022-09-12T14:28:48.176Z,21.89
2022-09-12T14:34:10.993Z,21.96
2022-09-12T14:39:32.021Z,21.95
2022-09-12T14:44:36.439Z,22.00
2022-09-12T14:49:39.714Z,22.04
2022-09-12T14:55:16.298Z,22.03
2022-09-12T15:00:23.178Z,22.11
2022-09-12T15:05:27.482Z,22.39
2022-09-12T15:10:40.488Z,22.75
2022-09-12T15:15:57.752Z,22.85
2022-09-12T15:21:07.746Z,22.82
2022-09-12T15:26:15.694Z,22.71
2022-09-12T15:31:31.029Z,22.69
2022-09-12T15:36:33.988Z,22.76
2022-09-12T15:41:39.063Z,22.77
2022-09-12T15:46:42.235Z,22.90
2022-09-12T15:51:45.074Z,22.88
2022-09-12T15:56:47.959Z,22.52
2022-09-12T16:01:51.112Z,22.06
2022-09-12T16:06:56.074Z,21.77
2022-09-12T16:11:58.900Z,21.39
2022-09-12T16:17:01.843Z,21.00
2022-09-12T16:22:04.648Z,20.68
2022-09-12T16:27:07.536Z,20.42
2022-09-12T16:32:10.417Z,20.15
2022-09-12T16:37:13.321Z,19.83
2022-09-12T16:42:19.495Z,19.59
2022-09-12T16:47:22.418Z,19.36
2022-09-12T16:52:25.253Z,19.18
2022-09-12T16:57:28.067Z,18.99
2022-09-12T17:02:30.789Z,18.81
2022-09-12T17:07:34.875Z,18.61
2022-09-12T17:12:37.655Z,18.43
2022-09-12T17:17:40.544Z,18.19
2022-09-12T17:22:43.339Z,18.00
2022-09-12T17:27:46.209Z,17.81
2022-09-12T17:32:52.535Z,17.73
2022-09-12T17:37:55.595Z,17.69
2022-09-12T17:42:58.997Z,17.63
2022-09-12T17:48:02.873Z,17.57
2022-09-12T17:53:06.418Z,17.50
2022-09-12T17:58:09.690Z,17.39
2022-09-12T18:03:13.077Z,17.19
2022-09-12T18:08:15.993Z,16.98
2022-09-12T18:13:18.869Z,16.77
2022-09-12T18:18:21.583Z,16.54
2022-09-12T18:23:24.495Z,16.36
2022-09-12T18:28:27.407Z,16.18
2022-09-12T18:33:30.293Z,16.02
2022-09-12T18:38:33.345Z,15.99
2022-09-12T18:43:36.792Z,15.95
2022-09-12T18:48:40.529Z,15.88
2022-09-12T18:53:43.927Z,15.81
2022-09-12T18:58:52.406Z,15.69
2022-09-12T19:03:56.066Z,15.58
2022-09-12T19:09:02.695Z,15.51
2022-09-12T19:14:08.519Z,15.46
2022-09-12T19:19:11.712Z,15.40
2022-09-12T19:24:16.333Z,15.32
2022-09-12T19:29:19.445Z,15.30
2022-09-12T19:34:22.323Z,15.26
2022-09-12T19:39:25.279Z,15.27
2022-09-12T19:44:30.460Z,15.29
2022-09-12T19:49:33.251Z,15.35
2022-09-12T19:54:36.096Z,15.39
2022-09-12T19:59:38.871Z,15.41
2022-09-12T20:04:41.676Z,15.39
2022-09-12T20:09:44.441Z,15.39
2022-09-12T20:14:47.343Z,15.35
2022-09-12T20:19:50.141Z,15.32
2022-09-12T20:24:52.935Z,15.20
2022-09-12T20:29:58.328Z,15.09
2022-09-12T20:35:01.561Z,15.01
2022-09-12T20:40:05.491Z,14.98
2022-09-12T20:45:08.744Z,14.90
2022-09-12T20:50:11.894Z,14.78
2022-09-12T20:55:14.839Z,14.70
2022-09-12T21:00:18.042Z,14.59
2022-09-12T21:05:20.873Z,14.54
2022-09-12T21:10:24.827Z,14.51
2022-09-12T21:15:27.934Z,14.41
2022-09-12T21:20:31.841Z,14.30
2022-09-12T21:25:34.721Z,14.12
2022-09-12T21:30:39.021Z,13.88
2022-09-12T21:35:42.271Z,13.69
2022-09-12T21:40:46.409Z,13.57
2022-09-12T21:45:56.609Z,13.47
2022-09-12T21:50:59.955Z,13.33
2022-09-12T21:56:08.393Z,13.27
2022-09-12T22:01:12.701Z,13.18
2022-09-12T22:06:17.775Z,13.11
2022-09-12T22:11:23.756Z,12.96
2022-09-12T22:16:26.633Z,12.84
2022-09-12T22:21:29.507Z,12.79
2022-09-12T22:26:42.144Z,12.68
2022-09-12T22:31:44.945Z,12.55
2022-09-12T22:36:48.886Z,12.42
2022-09-12T22:41:51.657Z,12.28
2022-09-12T22:46:54.595Z,12.09
2022-09-12T22:51:57.471Z,11.97
2022-09-12T22:57:00.383Z,11.83
2022-09-12T23:02:03.998Z,11.72
2022-09-12T23:07:06.928Z,11.64
2022-09-12T23:12:09.929Z,11.57
2022-09-12T23:17:12.757Z,11.47
2022-09-12T23:22:15.574Z,11.43
2022-09-12T23:27:18.443Z,11.29
2022-09-12T23:32:21.371Z,11.21
2022-09-12T23:37:24.127Z,11.17
2022-09-12T23:42:26.833Z,11.17
2022-09-12T23:47:30.179Z,11.07
2022-09-12T23:52:32.864Z,11.03
2022-09-12T23:57:35.759Z,11.03
